Time;durP1;ratioP1;P1;durP2;ratioP2;P2;SDS_P1;SDS_P2;PMS_P1;PMS_P2;Temp;Humidity;BMP_temperature;BMP_pressure;BME280_temperature;BME280_humidity;BME280_pressure;Samples;Min_cycle;Max_cycle;Signal;HPM_P1;HPM_P2
2020/12/17 00:00:27;;;;;;;0.77;0.30;;;;;;;6.54;88.02;99690.41;4912301;29;20036;-73
2020/12/17 00:02:52;;;;;;;4.47;1.20;;;;;;;6.57;88.72;99694.50;4890265;29;20027;-70
2020/12/17 00:05:19;;;;;;;2.10;0.60;;;;;;;6.56;88.49;99699.13;4896119;29;20034;-72
2020/12/17 00:07:47;;;;;;;1.80;0.38;;;;;;;6.57;88.63;99692.63;4898788;29;20540;-73
2020/12/17 00:10:14;;;;;;;0.30;0.30;;;;;;;6.59;88.29;99692.34;4904320;29;20060;-72
2020/12/17 00:12:42;;;;;;;2.17;0.35;;;;;;;6.62;88.81;99692.66;4909849;29;20084;-73
2020/12/17 00:15:10;;;;;;;4.85;0.75;;;;;;;6.61;88.37;99691.03;4892367;29;20087;-73
2020/12/17 00:17:44;;;;;;;0.98;0.77;;;;;;;6.60;88.45;99688.53;4909055;29;20046;-72
2020/12/17 00:20:10;;;;;;;4.53;0.55;;;;;;;6.53;88.06;99683.34;4911110;29;20786;-72
2020/12/17 00:22:37;;;;;;;0.73;0.45;;;;;;;6.59;88.91;99703.22;4903963;29;20038;-72
2020/12/17 00:25:07;;;;;;;2.65;0.60;;;;;;;6.59;89.04;99697.78;4893671;29;20039;-71
2020/12/17 00:27:33;;;;;;;0.22;0.20;;;;;;;6.58;88.79;99690.72;4884558;29;20029;-72
2020/12/17 00:29:58;;;;;;;1.55;0.63;;;;;;;6.57;88.36;99689.06;4892513;29;20050;-73
2020/12/17 00:32:24;;;;;;;2.72;0.30;;;;;;;6.53;88.72;99704.25;4898216;29;20047;-71
2020/12/17 00:34:50;;;;;;;0.77;0.43;;;;;;;6.49;88.16;99700.41;4894209;29;20566;-72
2020/12/17 00:37:15;;;;;;;1.48;0.30;;;;;;;6.49;88.43;99694.97;4879284;29;20123;-74
2020/12/17 00:39:41;;;;;;;0.43;0.43;;;;;;;6.47;88.01;99706.91;4919246;29;20111;-73
2020/12/17 00:42:06;;;;;;;0.30;0.20;;;;;;;6.44;87.75;99696.56;4904458;29;20043;-72
2020/12/17 00:44:32;;;;;;;0.60;0.30;;;;;;;6.41;88.02;99707.94;4888588;29;20462;-73
2020/12/17 00:46:58;;;;;;;0.60;0.30;;;;;;;6.40;87.79;99706.28;4908544;29;20068;-73
2020/12/17 00:49:23;;;;;;;0.85;0.30;;;;;;;6.39;88.27;99709.28;4906681;29;20655;-72
2020/12/17 00:51:49;;;;;;;0.45;0.10;;;;;;;6.35;87.59;99719.84;4891090;29;20040;-73
2020/12/17 00:54:14;;;;;;;1.60;0.10;;;;;;;6.35;87.63;99713.56;4906811;29;20087;-75
2020/12/17 00:56:46;;;;;;;0.30;0.30;;;;;;;6.33;87.91;99711.09;4910415;29;20036;-73
2020/12/17 00:59:13;;;;;;;0.35;0.20;;;;;;;6.30;87.36;99714.34;4882248;29;20039;-72
2020/12/17 01:01:41;;;;;;;1.50;0.10;;;;;;;6.29;87.98;99712.69;4896874;29;20489;-72
2020/12/17 01:04:06;;;;;;;0.43;0.10;;;;;;;6.23;87.41;99717.22;4908838;29;20039;-72
2020/12/17 01:06:32;;;;;;;1.27;0.20;;;;;;;6.27;88.13;99718.38;4915118;29;20402;-72
2020/12/17 01:08:57;;;;;;;2.05;0.10;;;;;;;6.27;87.62;99733.84;4908661;29;20119;-72
2020/12/17 01:11:27;;;;;;;0.38;0.05;;;;;;;6.25;87.78;99730.56;4905035;29;20035;-72
2020/12/17 01:13:53;;;;;;;1.52;0.10;;;;;;;6.22;88.11;99736.50;4893184;29;20143;-73
2020/12/17 01:16:18;;;;;;;0.68;0.10;;;;;;;6.22;88.16;99747.34;4913749;29;20052;-74
2020/12/17 01:18:43;;;;;;;0.98;0.15;;;;;;;6.20;87.98;99744.91;4895512;29;20044;-72
2020/12/17 01:21:09;;;;;;;4.47;0.20;;;;;;;6.19;88.33;99754.13;4894929;29;20507;-73
2020/12/17 01:23:34;;;;;;;0.30;0.10;;;;;;;6.18;87.56;99751.69;4891527;29;20037;-74
2020/12/17 01:26:00;;;;;;;0.15;0.10;;;;;;;6.16;87.73;99759.25;4913190;29;20035;-74
2020/12/17 01:28:26;;;;;;;0.43;0.00;;;;;;;6.14;87.83;99764.13;4874316;29;20038;-73
2020/12/17 01:30:51;;;;;;;0.15;0.08;;;;;;;6.09;87.26;99760.25;4889521;29;20058;-73
2020/12/17 01:33:18;;;;;;;0.40;0.10;;;;;;;6.09;87.67;99771.13;4909212;29;20040;-73
2020/12/17 01:35:44;;;;;;;0.10;0.10;;;;;;;6.09;87.79;99764.88;4910966;29;20063;-73
2020/12/17 01:38:10;;;;;;;0.05;0.00;;;;;;;6.09;87.20;99771.13;4906338;29;20044;-73
2020/12/17 01:40:35;;;;;;;0.08;0.08;;;;;;;6.09;87.94;99765.69;4926152;29;20037;-73
2020/12/17 01:43:00;;;;;;;0.15;0.10;;;;;;;6.13;88.16;99770.59;4926142;29;20028;-73
2020/12/17 01:45:26;;;;;;;0.20;0.00;;;;;;;6.16;88.66;99770.09;4876883;29;20507;-74
2020/12/17 01:47:52;;;;;;;1.05;0.10;;;;;;;6.29;88.75;99780.56;4903573;29;20036;-74
2020/12/17 01:50:19;;;;;;;0.17;0.00;;;;;;;6.37;89.02;99780.13;4900721;29;20391;-74
2020/12/17 01:52:47;;;;;;;0.30;0.00;;;;;;;6.50;89.11;99775.38;4915176;29;20084;-74
2020/12/17 01:55:13;;;;;;;0.85;0.00;;;;;;;6.62;89.40;99776.06;4910928;29;20046;-73
2020/12/17 01:57:44;;;;;;;0.00;0.00;;;;;;;6.69;88.28;99782.13;4897432;29;20032;-74
2020/12/17 02:00:11;;;;;;;0.00;0.00;;;;;;;6.75;88.17;99789.25;4905354;29;20028;-74
2020/12/17 02:02:36;;;;;;;0.43;0.00;;;;;;;6.84;88.95;99794.22;4892348;29;20021;-74
2020/12/17 02:05:05;;;;;;;0.00;0.00;;;;;;;6.91;89.01;99797.56;4893313;29;20111;-74
2020/12/17 02:07:31;;;;;;;0.35;0.10;;;;;;;6.95;88.76;99798.66;4912182;29;20048;-74
2020/12/17 02:09:57;;;;;;;0.80;0.20;;;;;;;6.99;87.97;99797.06;4885562;29;20071;-73
2020/12/17 02:12:22;;;;;;;0.00;0.00;;;;;;;7.03;88.93;99789.22;4899499;29;20479;-73
2020/12/17 02:14:48;;;;;;;0.00;0.00;;;;;;;7.08;88.24;99798.25;4864905;29;20046;-73
2020/12/17 02:17:16;;;;;;;0.15;0.00;;;;;;;7.11;88.26;99802.34;4881248;29;20038;-74
2020/12/17 02:19:44;;;;;;;0.20;0.00;;;;;;;7.11;88.47;99789.59;4910709;29;20040;-73
2020/12/17 02:22:09;;;;;;;1.35;0.10;;;;;;;7.15;89.06;99804.31;4911150;29;20424;-73
2020/12/17 02:24:35;;;;;;;0.17;0.10;;;;;;;7.18;88.17;99802.13;4909836;29;20040;-74
2020/12/17 02:27:00;;;;;;;0.45;0.15;;;;;;;7.20;88.67;99799.97;4900686;29;20036;-73
2020/12/17 02:29:26;;;;;;;0.52;0.20;;;;;;;7.20;88.45;99795.38;4889854;29;20467;-73
2020/12/17 02:31:52;;;;;;;0.10;0.10;;;;;;;7.12;87.53;99802.06;4914900;29;20385;-75
2020/12/17 02:34:17;;;;;;;0.28;0.28;;;;;;;7.08;87.55;99797.41;4891587;29;20087;-73
2020/12/17 02:36:42;;;;;;;0.10;0.10;;;;;;;7.01;87.80;99802.25;4910285;29;20118;-73
2020/12/17 02:39:08;;;;;;;0.13;0.08;;;;;;;6.92;87.85;99805.44;4899371;29;20035;-73
2020/12/17 02:41:33;;;;;;;0.10;0.00;;;;;;;6.81;87.25;99804.50;4911266;29;20024;-74
2020/12/17 02:44:01;;;;;;;0.57;0.20;;;;;;;6.71;87.20;99809.84;4895888;29;20420;-75
2020/12/17 02:46:29;;;;;;;0.13;0.00;;;;;;;6.66;86.83;99828.81;4894564;29;20123;-74
2020/12/17 02:48:54;;;;;;;0.17;0.10;;;;;;;6.59;87.54;99833.63;4910646;29;20034;-75
2020/12/17 02:51:20;;;;;;;0.50;0.35;;;;;;;6.58;86.58;99837.41;4900631;28;20028;-74
2020/12/17 02:53:46;;;;;;;0.08;0.00;;;;;;;6.50;87.53;99841.41;4909587;29;20055;-74
2020/12/17 02:56:13;;;;;;;0.00;0.00;;;;;;;6.44;86.79;99840.50;4880667;29;20427;-74
2020/12/17 02:58:39;;;;;;;0.03;0.00;;;;;;;6.40;87.05;99852.94;4898787;29;20028;-74
2020/12/17 03:01:04;;;;;;;0.00;0.00;;;;;;;6.34;86.37;99853.97;4907563;29;20117;-74
2020/12/17 03:03:30;;;;;;;0.08;0.08;;;;;;;6.30;86.43;99858.25;4881879;29;20064;-73
2020/12/17 03:05:55;;;;;;;0.10;0.10;;;;;;;6.25;86.66;99850.03;4898709;29;20721;-74
2020/12/17 03:08:21;;;;;;;0.00;0.00;;;;;;;6.17;87.23;99848.56;4908571;29;20124;-74
2020/12/17 03:10:46;;;;;;;0.00;0.00;;;;;;;6.20;86.67;99852.69;4915431;29;20023;-74
2020/12/17 03:13:12;;;;;;;0.00;0.00;;;;;;;6.16;86.39;99851.53;4911663;29;20032;-72
2020/12/17 03:15:37;;;;;;;0.00;0.00;;;;;;;6.09;86.53;99846.31;4887677;29;20040;-73
2020/12/17 03:18:03;;;;;;;0.00;0.00;;;;;;;6.13;86.98;99841.19;4879330;29;20040;-73
2020/12/17 03:20:31;;;;;;;0.65;0.10;;;;;;;6.16;87.58;99843.41;4898260;29;20040;-74
2020/12/17 03:22:57;;;;;;;0.03;0.03;;;;;;;6.21;88.18;99838.88;4911226;29;20028;-74
2020/12/17 03:25:22;;;;;;;0.68;0.30;;;;;;;6.26;87.58;99840.81;4889898;29;20353;-74
2020/12/17 03:27:47;;;;;;;0.15;0.10;;;;;;;6.30;87.72;99847.41;4906314;29;20034;-74
2020/12/17 03:30:13;;;;;;;1.27;0.30;;;;;;;6.34;88.07;99847.69;4902789;29;20110;-77
2020/12/17 03:32:38;;;;;;;0.08;0.08;;;;;;;6.38;88.67;99849.69;4896316;29;20028;-76
2020/12/17 03:35:04;;;;;;;0.10;0.10;;;;;;;6.43;88.23;99846.19;4901405;29;20099;-76
2020/12/17 03:37:31;;;;;;;0.65;0.22;;;;;;;6.45;87.74;99850.31;4914954;29;20032;-77
2020/12/17 03:39:59;;;;;;;0.10;0.10;;;;;;;6.43;88.84;99847.00;4914834;29;20069;-76
2020/12/17 03:42:27;;;;;;;1.00;0.30;;;;;;;6.43;88.85;99841.56;4904782;29;20075;-76
2020/12/17 03:44:53;;;;;;;0.50;0.13;;;;;;;6.50;88.58;99856.84;4911905;29;20492;-76
2020/12/17 03:47:18;;;;;;;1.92;0.20;;;;;;;6.46;87.77;99851.94;4912220;29;20111;-76
2020/12/17 03:49:43;;;;;;;0.57;0.30;;;;;;;6.44;88.12;99848.66;4910280;29;20063;-75
2020/12/17 03:52:10;;;;;;;0.63;0.20;;;;;;;6.43;88.86;99849.72;4885030;29;20063;-76
2020/12/17 03:54:36;;;;;;;0.17;0.10;;;;;;;6.39;88.94;99845.88;4891381;29;20447;-76
2020/12/17 03:57:01;;;;;;;0.63;0.10;;;;;;;6.34;88.86;99853.97;4862944;29;20148;-75
2020/12/17 03:59:27;;;;;;;0.45;0.30;;;;;;;6.33;87.81;99860.47;4864343;29;20032;-76
2020/12/17 04:01:52;;;;;;;1.13;0.10;;;;;;;6.28;88.64;99858.50;4893941;29;20053;-74
2020/12/17 04:04:18;;;;;;;0.70;0.20;;;;;;;6.27;88.60;99869.63;4888703;29;20127;-75
2020/12/17 04:06:43;;;;;;;0.52;0.20;;;;;;;6.22;88.15;99867.66;4886019;29;20073;-76
2020/12/17 04:09:08;;;;;;;1.67;0.30;;;;;;;6.19;88.77;99879.03;4892584;29;20059;-75
2020/12/17 04:11:34;;;;;;;1.55;0.35;;;;;;;6.19;88.41;99880.91;4891801;29;20047;-76
2020/12/17 04:13:59;;;;;;;1.20;0.75;;;;;;;6.16;88.40;99889.56;4892246;29;20032;-76
2020/12/17 04:16:25;;;;;;;4.57;0.50;;;;;;;6.17;88.50;99888.50;4874394;29;20036;-75
2020/12/17 04:18:50;;;;;;;0.57;0.20;;;;;;;6.16;88.47;99890.38;4886471;29;20037;-75
2020/12/17 04:21:15;;;;;;;1.00;0.30;;;;;;;6.13;87.96;99896.28;4868018;29;20032;-75
2020/12/17 04:23:41;;;;;;;0.68;0.30;;;;;;;6.10;87.87;99891.38;4878906;29;20523;-75
2020/12/17 04:26:14;;;;;;;0.38;0.10;;;;;;;6.07;88.63;99898.09;4892145;29;20059;-76
2020/12/17 04:28:39;;;;;;;0.00;0.00;;;;;;;6.06;88.31;99895.66;4891455;29;20044;-75
2020/12/17 04:31:05;;;;;;;0.13;0.10;;;;;;;6.01;88.31;99893.69;4892939;29;20040;-76
2020/12/17 04:33:30;;;;;;;1.42;0.20;;;;;;;5.99;88.39;99898.56;4885481;29;20044;-75
2020/12/17 04:35:56;;;;;;;0.03;0.00;;;;;;;5.98;88.08;99905.03;4870704;29;20036;-75
2020/12/17 04:38:21;;;;;;;0.93;0.10;;;;;;;5.98;88.23;99901.50;4891235;29;20033;-77
2020/12/17 04:40:47;;;;;;;0.40;0.10;;;;;;;5.94;87.94;99903.84;4895161;29;20033;-76
2020/12/17 04:43:12;;;;;;;0.30;0.20;;;;;;;5.92;88.19;99909.53;4894227;29;20369;-76
2020/12/17 04:45:39;;;;;;;0.55;0.22;;;;;;;5.91;88.40;99915.22;4878738;29;20088;-75
2020/12/17 04:48:06;;;;;;;3.17;0.17;;;;;;;5.94;88.12;99920.13;4865332;29;20372;-75
2020/12/17 04:50:33;;;;;;;1.50;0.17;;;;;;;5.97;88.79;99916.97;4888657;29;20048;-75
2020/12/17 04:53:01;;;;;;;0.70;0.20;;;;;;;6.00;89.00;99913.78;4889671;29;20112;-75
2020/12/17 04:55:29;;;;;;;0.63;0.10;;;;;;;6.03;88.25;99926.00;4891020;29;20088;-75
2020/12/17 04:57:58;;;;;;;0.35;0.10;;;;;;;6.01;88.03;99926.25;4893907;29;20116;-74
2020/12/17 05:00:25;;;;;;;0.93;0.20;;;;;;;6.05;88.18;99937.44;4890461;29;20021;-75
2020/12/17 05:02:55;;;;;;;3.42;0.10;;;;;;;6.07;87.90;99940.72;4886572;29;20482;-75
2020/12/17 05:05:20;;;;;;;1.55;0.40;;;;;;;6.08;88.47;99948.63;4897000;29;20036;-74
2020/12/17 05:07:46;;;;;;;0.63;0.20;;;;;;;6.08;88.10;99943.19;4892094;29;20484;-75
2020/12/17 05:10:11;;;;;;;1.35;0.20;;;;;;;6.11;88.85;99948.13;4881741;29;20039;-75
2020/12/17 05:12:37;;;;;;;3.33;0.00;;;;;;;6.10;88.79;99946.50;4896289;29;20103;-75
2020/12/17 05:15:04;;;;;;;0.15;0.10;;;;;;;6.11;88.96;99947.31;4888060;29;20037;-76
2020/12/17 05:17:30;;;;;;;1.95;0.05;;;;;;;6.07;88.77;99949.69;4887936;29;20044;-75
2020/12/17 05:19:57;;;;;;;1.33;0.45;;;;;;;6.09;88.67;99960.31;4882543;29;20025;-75
2020/12/17 05:22:23;;;;;;;0.10;0.05;;;;;;;6.07;88.82;99960.53;4892155;29;20036;-75
2020/12/17 05:24:49;;;;;;;0.20;0.10;;;;;;;6.05;88.36;99970.03;4893868;29;20031;-75
2020/12/17 05:27:15;;;;;;;0.15;0.10;;;;;;;6.00;88.20;99976.19;4877277;29;20127;-75
2020/12/17 05:29:41;;;;;;;5.10;0.00;;;;;;;5.98;87.99;99975.59;4882014;29;20036;-74
2020/12/17 05:32:08;;;;;;;0.95;0.15;;;;;;;5.94;88.05;99979.84;4883410;29;20132;-73
2020/12/17 05:34:36;;;;;;;0.30;0.10;;;;;;;5.91;88.08;99974.91;4895062;29;20063;-73
2020/12/17 05:37:01;;;;;;;1.85;0.20;;;;;;;5.90;87.80;99981.44;4916484;29;20029;-73
2020/12/17 05:39:28;;;;;;;0.20;0.10;;;;;;;5.86;87.62;99978.38;4881037;29;20043;-75
2020/12/17 05:41:55;;;;;;;0.25;0.20;;;;;;;5.84;87.53;99985.09;4897648;29;20095;-75
2020/12/17 05:44:26;;;;;;;0.25;0.20;;;;;;;5.81;87.99;99986.44;4873652;29;20471;-74
2020/12/17 05:46:52;;;;;;;0.95;0.10;;;;;;;5.81;87.63;99989.16;4891283;29;20043;-75
2020/12/17 05:49:29;;;;;;;0.10;0.00;;;;;;;5.87;88.20;99992.75;4892878;29;20032;-74
2020/12/17 05:52:24;;;;;;;0.10;0.10;;;;;;;5.86;87.45;99993.84;4872710;29;20064;-75
2020/12/17 05:54:56;;;;;;;0.20;0.10;;;;;;;5.83;87.37;99988.91;4896015;29;20406;-75
2020/12/17 05:57:22;;;;;;;0.85;0.20;;;;;;;5.78;87.67;99997.75;4900212;29;20537;-74
2020/12/17 06:00:01;;;;;;;0.40;0.17;;;;;;;5.79;88.25;99999.41;4896487;29;20083;-74
2020/12/17 06:02:29;;;;;;;2.80;0.10;;;;;;;5.79;88.09;100006.75;4910779;29;20027;-73
2020/12/17 06:05:08;;;;;;;0.10;0.10;;;;;;;5.77;87.57;100012.41;4910316;29;20055;-74
2020/12/17 06:07:58;;;;;;;0.00;0.00;;;;;;;5.74;87.72;100021.84;4893473;29;20114;-73
2020/12/17 06:10:28;;;;;;;0.10;0.03;;;;;;;5.70;87.19;100017.97;4893778;29;20033;-73
2020/12/17 06:13:00;;;;;;;0.10;0.03;;;;;;;5.68;87.91;100022.00;4893497;29;20052;-74
2020/12/17 06:15:27;;;;;;;0.00;0.00;;;;;;;5.63;87.63;100022.72;4910221;29;20036;-73
2020/12/17 06:18:01;;;;;;;0.10;0.00;;;;;;;5.62;87.03;100026.50;4923055;29;20586;-73
2020/12/17 06:20:29;;;;;;;0.00;0.00;;;;;;;5.56;87.44;100022.91;4911923;29;20050;-74
2020/12/17 06:22:59;;;;;;;0.00;0.00;;;;;;;5.55;86.81;100029.38;4911824;29;20131;-74
2020/12/17 06:25:28;;;;;;;0.00;0.00;;;;;;;5.50;87.42;100031.97;4902262;29;20036;-74
2020/12/17 06:27:54;;;;;;;0.00;0.00;;;;;;;5.48;86.67;100036.03;4894105;29;20036;-74
2020/12/17 06:30:25;;;;;;;0.00;0.00;;;;;;;5.42;86.94;100033.19;4913403;29;20059;-74
2020/12/17 06:32:55;;;;;;;0.10;0.03;;;;;;;5.42;86.87;100038.63;4912761;29;20032;-74
2020/12/17 06:35:50;;;;;;;0.00;0.00;;;;;;;5.39;87.59;100043.72;4910891;29;20032;-74
2020/12/17 06:38:16;;;;;;;0.00;0.00;;;;;;;5.36;87.65;100052.31;4908653;29;20035;-74
2020/12/17 06:40:42;;;;;;;0.25;0.00;;;;;;;5.34;86.79;100047.13;4910390;29;20040;-76
2020/12/17 06:43:36;;;;;;;0.00;0.00;;;;;;;5.31;87.08;100052.22;4884065;29;20035;-76
2020/12/17 06:46:03;;;;;;;0.00;0.00;;;;;;;5.27;87.22;100054.59;4906098;29;20446;-76
2020/12/17 06:48:34;;;;;;;0.00;0.00;;;;;;;5.24;86.67;100058.59;4907140;29;20372;-76
2020/12/17 06:51:01;;;;;;;0.05;0.05;;;;;;;5.19;86.85;100058.47;4905928;29;20043;-74
2020/12/17 06:53:41;;;;;;;0.00;0.00;;;;;;;5.19;86.94;100071.22;4912337;29;20044;-74
2020/12/17 06:56:14;;;;;;;0.00;0.00;;;;;;;5.14;86.43;100074.66;4909942;29;20051;-75
2020/12/17 06:58:39;;;;;;;0.00;0.00;;;;;;;5.12;86.51;100075.94;4907509;29;20023;-75
2020/12/17 07:01:21;;;;;;;0.35;0.10;;;;;;;5.13;87.17;100083.84;4911665;29;20059;-75
2020/12/17 07:03:48;;;;;;;2.53;0.17;;;;;;;5.19;87.24;100076.66;4893850;29;20067;-75
2020/12/17 07:06:16;;;;;;;1.10;0.20;;;;;;;5.26;87.98;100082.75;4906849;29;20509;-75
2020/12/17 07:08:44;;;;;;;1.23;0.10;;;;;;;5.35;88.70;100085.94;4897911;29;20035;-75
2020/12/17 07:11:44;;;;;;;0.47;0.13;;;;;;;5.47;88.57;100083.19;4913839;29;20116;-74
2020/12/17 07:14:34;;;;;;;1.30;0.40;;;;;;;5.53;88.79;100087.63;4913542;29;20374;-76
2020/12/17 07:17:15;;;;;;;;;;;;;;;;;;;;;
2020/12/17 07:19:47;;;;;;;0.82;0.15;;;;;;;5.57;88.91;100088.81;4914855;29;20034;-74
2020/12/17 07:22:14;;;;;;;0.43;0.13;;;;;;;5.56;88.75;100100.72;4914812;29;20024;-74
2020/12/17 07:24:43;;;;;;;0.10;0.10;;;;;;;5.56;88.84;100093.41;4892484;29;20036;-76
2020/12/17 07:27:14;;;;;;;0.32;0.20;;;;;;;5.55;88.89;100096.38;4913047;29;20032;-75
2020/12/17 07:29:50;;;;;;;1.25;0.35;;;;;;;5.57;88.63;100107.78;4903811;29;21640;-76
2020/12/17 07:32:28;;;;;;;0.32;0.10;;;;;;;5.55;88.18;100112.66;4909165;29;20032;-74
2020/12/17 07:35:08;;;;;;;0.47;0.17;;;;;;;5.50;87.70;100109.81;4889882;29;20027;-78
2020/12/17 07:37:39;;;;;;;0.30;0.10;;;;;;;5.46;88.27;100114.06;4909674;29;20028;-76
2020/12/17 07:40:35;;;;;;;0.63;0.13;;;;;;;5.45;88.06;100123.25;4897187;29;20035;-76
2020/12/17 07:43:08;;;;;;;0.30;0.10;;;;;;;5.42;88.31;100117.25;4912206;29;20690;-76
2020/12/17 07:45:42;;;;;;;0.10;0.10;;;;;;;5.43;88.41;100126.22;4912461;29;20035;-76
2020/12/17 07:48:32;;;;;;;0.57;0.10;;;;;;;5.45;88.36;100134.09;4912402;29;20040;-77
2020/12/17 07:50:58;;;;;;;0.30;0.10;;;;;;;5.47;88.34;100134.72;4912556;29;20020;-77
2020/12/17 07:53:24;;;;;;;0.98;0.10;;;;;;;5.48;88.70;100133.66;4883043;29;20051;-79
2020/12/17 07:55:54;;;;;;;0.30;0.10;;;;;;;5.52;88.16;100135.66;4913761;29;20119;-76
2020/12/17 07:58:20;;;;;;;0.10;0.10;;;;;;;5.51;88.71;100144.03;4908089;29;20099;-77
2020/12/17 08:00:45;;;;;;;0.68;0.10;;;;;;;5.51;88.64;100138.59;4911326;29;20036;-77
2020/12/17 08:03:18;;;;;;;2.47;0.20;;;;;;;5.55;88.57;100139.78;4910959;29;20025;-76
2020/12/17 08:05:44;;;;;;;0.32;0.13;;;;;;;5.59;88.85;100140.91;4890673;29;20059;-74
2020/12/17 08:08:14;;;;;;;0.35;0.20;;;;;;;5.64;88.24;100151.88;4913130;29;20064;-73
2020/12/17 08:10:39;;;;;;;0.77;0.25;;;;;;;5.67;89.01;100154.13;4896835;29;20122;-71
2020/12/17 08:13:05;;;;;;;10.77;0.57;;;;;;;5.70;88.53;100153.63;4908593;29;20525;-72
2020/12/17 08:15:31;;;;;;;1.70;0.38;;;;;;;5.71;89.20;100165.31;4895196;29;20344;-72
2020/12/17 08:17:57;;;;;;;0.08;0.00;;;;;;;5.71;89.01;100166.16;4913905;29;20040;-73
2020/12/17 08:20:25;;;;;;;3.40;0.25;;;;;;;5.70;88.26;100163.66;4888054;29;20040;-71
2020/12/17 08:22:52;;;;;;;1.88;0.40;;;;;;;5.69;88.02;100170.97;4911001;29;20016;-70
2020/12/17 08:25:17;;;;;;;0.35;0.10;;;;;;;5.68;88.95;100174.75;4874029;29;20040;-73
2020/12/17 08:27:43;;;;;;;1.17;0.00;;;;;;;5.67;88.68;100175.81;4911337;29;20032;-73
2020/12/17 08:30:08;;;;;;;2.22;0.10;;;;;;;5.69;87.99;100179.09;4905943;29;20036;-71
2020/12/17 08:32:34;;;;;;;0.13;0.00;;;;;;;5.69;88.11;100183.72;4908034;29;20054;-70
2020/12/17 08:34:59;;;;;;;0.00;0.00;;;;;;;5.67;88.18;100192.09;4900409;29;21211;-72
2020/12/17 08:37:25;;;;;;;0.00;0.00;;;;;;;5.68;88.20;100188.34;4916610;29;20095;-73
2020/12/17 08:40:06;;;;;;;0.00;0.00;;;;;;;5.71;87.89;100196.00;4901123;29;20059;-72
2020/12/17 08:42:34;;;;;;;0.15;0.08;;;;;;;5.71;88.24;100198.69;4895947;29;20032;-73
2020/12/17 08:45:07;;;;;;;0.08;0.00;;;;;;;5.72;87.94;100200.34;4891565;29;20032;-73
2020/12/17 08:47:36;;;;;;;0.22;0.10;;;;;;;5.74;87.79;100203.66;4879803;29;20024;-74
2020/12/17 08:50:04;;;;;;;0.17;0.10;;;;;;;5.77;88.18;100205.88;4907888;29;20646;-72
2020/12/17 08:52:32;;;;;;;0.32;0.10;;;;;;;5.80;88.48;100211.88;4909968;29;20052;-73
2020/12/17 08:55:09;;;;;;;0.00;0.00;;;;;;;5.87;88.50;100218.84;4906577;29;20028;-72
2020/12/17 08:57:34;;;;;;;0.10;0.00;;;;;;;5.92;88.80;100226.25;4907585;29;20059;-73
2020/12/17 09:00:00;;;;;;;0.00;0.00;;;;;;;5.98;87.98;100230.75;4893959;29;20084;-73
2020/12/17 09:02:26;;;;;;;3.83;0.10;;;;;;;6.01;88.33;100224.03;4910937;29;20032;-74
2020/12/17 09:05:00;;;;;;;0.15;0.10;;;;;;;6.06;88.14;100227.66;4920084;29;20099;-73
2020/12/17 09:07:31;;;;;;;0.17;0.17;;;;;;;6.06;88.43;100233.09;4895434;29;20510;-72
2020/12/17 09:10:10;;;;;;;0.00;0.00;;;;;;;6.08;88.03;100235.56;4911226;29;20032;-73
2020/12/17 09:12:35;;;;;;;0.13;0.00;;;;;;;6.10;88.12;100239.69;4896129;29;20514;-75
2020/12/17 09:15:09;;;;;;;0.15;0.00;;;;;;;6.18;88.85;100249.34;4890218;29;20043;-73
2020/12/17 09:17:35;;;;;;;0.35;0.20;;;;;;;6.25;88.56;100257.34;4910778;29;20102;-73
2020/12/17 09:20:01;;;;;;;0.70;0.13;;;;;;;6.30;88.75;100254.75;4891890;29;20456;-73
2020/12/17 09:22:35;;;;;;;0.30;0.10;;;;;;;6.40;88.65;100254.94;4908695;29;20381;-73
2020/12/17 09:25:01;;;;;;;2.47;0.65;;;;;;;6.51;88.95;100266.00;4886278;29;20036;-73
2020/12/17 09:27:34;;;;;;;6.72;0.47;;;;;;;6.62;89.75;100265.94;4902882;29;20029;-73
2020/12/17 09:30:14;;;;;;;2.40;0.40;;;;;;;6.72;89.66;100270.75;4882014;29;20032;-71
2020/12/17 09:33:02;;;;;;;5.88;0.50;;;;;;;6.85;89.40;100266.06;4898539;29;20028;-72
2020/12/17 09:35:35;;;;;;;1.38;0.10;;;;;;;7.00;90.03;100266.31;4888085;29;20455;-72
2020/12/17 09:38:04;;;;;;;0.75;0.20;;;;;;;7.11;89.98;100270.88;4880776;29;20095;-72
2020/12/17 09:40:30;;;;;;;0.25;0.20;;;;;;;7.48;89.51;100273.06;4913804;29;20047;-72
2020/12/17 09:43:13;;;;;;;0.05;0.00;;;;;;;8.33;90.24;100285.63;4896838;29;20028;-72
2020/12/17 09:45:44;;;;;;;0.13;0.10;;;;;;;9.19;89.19;100286.81;4906487;29;20040;-72
2020/12/17 09:48:25;;;;;;;0.20;0.20;;;;;;;10.12;87.06;100288.22;4887226;29;20051;-71
2020/12/17 09:51:00;;;;;;;0.13;0.10;;;;;;;10.82;84.67;100296.13;4900413;29;20024;-72
2020/12/17 09:53:26;;;;;;;0.88;0.00;;;;;;;11.38;82.71;100310.97;4911124;29;20066;-73
2020/12/17 09:55:52;;;;;;;0.35;0.10;;;;;;;11.82;81.86;100308.44;4920773;29;20024;-71
2020/12/17 09:58:18;;;;;;;0.10;0.00;;;;;;;12.28;81.24;100315.75;4907674;29;20038;-72
2020/12/17 10:00:43;;;;;;;0.57;0.10;;;;;;;12.81;80.29;100317.13;4917929;29;20028;-73
2020/12/17 10:03:10;;;;;;;0.00;0.00;;;;;;;13.42;79.15;100321.41;4907846;29;20447;-73
2020/12/17 10:05:36;;;;;;;0.10;0.10;;;;;;;14.02;77.73;100318.34;4913134;29;20028;-72
2020/12/17 10:08:01;;;;;;;0.10;0.10;;;;;;;14.59;76.33;100320.41;4895550;29;20440;-72
2020/12/17 10:10:29;;;;;;;0.00;0.00;;;;;;;15.09;75.38;100325.53;4896947;29;20043;-71
2020/12/17 10:12:58;;;;;;;4.13;0.30;;;;;;;15.54;73.82;100329.47;4913403;29;20016;-73
2020/12/17 10:15:28;;;;;;;0.90;0.50;;;;;;;15.71;72.38;100328.06;4925390;29;20028;-71
2020/12/17 10:17:54;;;;;;;0.75;0.30;;;;;;;16.07;72.84;100332.97;4916864;29;20023;-73
2020/12/17 10:20:20;;;;;;;3.55;0.80;;;;;;;16.49;71.76;100339.28;4924041;29;20020;-73
2020/12/17 10:22:46;;;;;;;0.20;0.10;;;;;;;16.89;71.40;100339.59;4916774;29;20051;-72
2020/12/17 10:25:13;;;;;;;4.20;0.38;;;;;;;17.31;70.62;100339.44;4923636;29;20024;-72
2020/12/17 10:27:39;;;;;;;1.95;0.82;;;;;;;17.76;70.33;100338.59;4910230;29;20427;-72
2020/12/17 10:30:06;;;;;;;1.92;0.20;;;;;;;18.07;68.64;100343.34;4907270;29;20024;-72
2020/12/17 10:32:32;;;;;;;2.28;0.68;;;;;;;18.20;68.00;100358.22;4907751;29;20044;-73
2020/12/17 10:34:58;;;;;;;0.50;0.20;;;;;;;18.41;68.18;100348.19;4913246;29;20024;-72
2020/12/17 10:37:23;;;;;;;1.35;0.35;;;;;;;18.75;67.85;100351.34;4892297;29;20037;-72
2020/12/17 10:39:49;;;;;;;1.42;0.35;;;;;;;19.17;67.77;100351.75;4889288;29;20363;-72
2020/12/17 10:42:14;;;;;;;0.82;0.32;;;;;;;19.58;66.55;100347.66;4915464;29;20740;-73
2020/12/17 10:44:39;;;;;;;4.20;0.80;;;;;;;19.83;64.60;100356.28;4868878;29;20028;-73
2020/12/17 10:47:06;;;;;;;2.53;0.57;;;;;;;19.97;63.61;100356.88;4907638;29;20403;-72
2020/12/17 10:49:34;;;;;;;1.00;0.20;;;;;;;20.10;64.44;100359.81;4913022;29;20032;-73
2020/12/17 10:52:00;;;;;;;3.85;0.45;;;;;;;20.20;62.91;100362.22;4894929;29;20036;-73
2020/12/17 10:54:26;;;;;;;0.88;0.60;;;;;;;20.18;62.98;100365.31;4913522;29;20127;-73
2020/12/17 10:56:51;;;;;;;3.13;1.30;;;;;;;20.16;63.61;100364.81;4924224;29;20084;-72
2020/12/17 10:59:17;;;;;;;11.27;1.80;;;;;;;20.23;62.52;100361.53;4912817;29;20028;-72
2020/12/17 11:01:42;;;;;;;4.97;1.20;;;;;;;20.25;60.42;100367.56;4893369;29;20020;-72
2020/12/17 11:04:08;;;;;;;2.55;1.02;;;;;;;20.01;60.04;100360.63;4910117;29;20043;-72
2020/12/17 11:06:34;;;;;;;4.35;1.02;;;;;;;19.73;61.23;100362.13;4894067;29;20394;-71
2020/12/17 11:09:00;;;;;;;4.07;0.68;;;;;;;19.61;60.94;100355.34;4885779;29;20036;-73
2020/12/17 11:11:25;;;;;;;4.72;1.13;;;;;;;19.46;60.96;100358.59;4927582;29;20463;-72
2020/12/17 11:13:59;;;;;;;2.55;0.75;;;;;;;19.50;61.71;100354.03;4898979;29;20031;-73
2020/12/17 11:16:26;;;;;;;8.20;1.58;;;;;;;19.52;60.52;100357.28;4883157;29;20047;-73
2020/12/17 11:18:52;;;;;;;2.33;0.80;;;;;;;19.43;60.10;100364.81;4879159;29;20032;-73
2020/12/17 11:21:19;;;;;;;3.80;0.63;;;;;;;19.35;59.66;100353.41;4890215;29;20036;-72
2020/12/17 11:23:45;;;;;;;3.25;1.02;;;;;;;19.48;57.52;100356.34;4905051;29;20039;-72
2020/12/17 11:26:10;;;;;;;2.70;0.57;;;;;;;19.50;55.33;100354.03;4882794;29;20490;-73
2020/12/17 11:28:35;;;;;;;3.38;1.00;;;;;;;19.57;57.17;100351.59;4883758;29;20040;-73
2020/12/17 11:31:01;;;;;;;1.73;0.73;;;;;;;19.90;58.90;100351.03;4907042;29;20032;-72
2020/12/17 11:33:29;;;;;;;3.60;1.13;;;;;;;20.23;55.55;100356.00;4877574;29;20099;-72
2020/12/17 11:35:59;;;;;;;2.85;0.82;;;;;;;19.81;53.74;100353.03;4899723;29;20032;-73
2020/12/17 11:38:24;;;;;;;2.70;1.45;;;;;;;18.80;56.39;100365.06;4888083;29;20036;-72
2020/12/17 11:40:51;;;;;;;2.17;1.70;;;;;;;17.94;56.10;100347.81;4907612;29;20032;-72